createdAt,value
2017-09-19T00:00:34.015Z,966.86
2017-09-19T00:01:43.031Z,966.85
2017-09-19T00:02:52.046Z,966.84
2017-09-19T00:04:01.391Z,966.81
2017-09-19T00:05:11.054Z,966.83
2017-09-19T00:06:20.074Z,966.83
2017-09-19T00:07:28.771Z,966.85
2017-09-19T00:08:37.787Z,966.77
2017-09-19T00:09:46.808Z,966.79
2017-09-19T00:10:56.474Z,966.78
2017-09-19T00:12:05.812Z,966.78
2017-09-19T00:13:15.146Z,966.82
2017-09-19T00:14:24.168Z,966.82
2017-09-19T00:15:32.863Z,966.81
2017-09-19T00:16:41.561Z,966.79
2017-09-19T00:17:50.898Z,966.82
2017-09-19T00:19:00.237Z,966.79
2017-09-19T00:20:09.577Z,966.77
2017-09-19T00:21:18.275Z,966.76
2017-09-19T00:22:26.985Z,966.78
2017-09-19T00:23:36.637Z,966.8
2017-09-19T00:24:45.654Z,966.77
2017-09-19T00:25:55.310Z,966.79
2017-09-19T00:27:04.328Z,966.77
2017-09-19T00:28:13.345Z,966.78
2017-09-19T00:29:23.001Z,966.78
2017-09-19T00:30:32.018Z,966.75
2017-09-19T00:31:41.682Z,966.77
2017-09-19T00:32:50.379Z,966.75
2017-09-19T00:33:59.726Z,966.76
2017-09-19T00:35:09.067Z,966.8
2017-09-19T00:36:18.733Z,966.76
2017-09-19T00:37:27.430Z,966.76
2017-09-19T00:38:37.107Z,966.74
2017-09-19T00:39:46.101Z,966.71
2017-09-19T00:40:55.435Z,966.74
2017-09-19T00:42:04.785Z,966.78
2017-09-19T00:43:14.132Z,966.76
2017-09-19T00:44:23.789Z,966.73
2017-09-19T00:45:32.488Z,966.76
2017-09-19T00:46:41.826Z,966.73
2017-09-19T00:47:51.477Z,966.74
2017-09-19T00:49:00.815Z,966.72
2017-09-19T00:50:10.472Z,966.69
2017-09-19T00:51:19.169Z,966.7
2017-09-19T00:52:27.872Z,966.67
2017-09-19T00:53:37.204Z,966.71
2017-09-19T00:54:46.866Z,966.71
2017-09-19T00:55:56.522Z,966.77
2017-09-19T00:57:05.542Z,966.77
2017-09-19T00:58:14.557Z,966.73
2017-09-19T00:59:23.892Z,966.7
2017-09-19T01:00:32.905Z,966.7
2017-09-19T01:01:41.922Z,966.69
2017-09-19T01:02:51.257Z,966.68
2017-09-19T01:04:00.913Z,966.67
2017-09-19T01:05:09.933Z,966.7
2017-09-19T01:06:19.271Z,966.67
2017-09-19T01:07:27.965Z,966.65
2017-09-19T01:08:36.986Z,966.65
2017-09-19T01:09:46.324Z,966.68
2017-09-19T01:10:55.983Z,966.67
2017-09-19T01:12:04.999Z,966.64
2017-09-19T01:13:14.332Z,966.7
2017-09-19T01:14:23.349Z,966.66
2017-09-19T01:15:32.684Z,966.64
2017-09-19T01:16:41.701Z,966.65
2017-09-19T01:17:50.401Z,966.62
2017-09-19T01:18:59.417Z,966.57
2017-09-19T01:20:09.076Z,966.62
2017-09-19T01:21:18.097Z,966.58
2017-09-19T01:22:27.114Z,966.6
2017-09-19T01:23:36.764Z,966.6
2017-09-19T01:24:45.461Z,966.6
2017-09-19T01:25:55.119Z,966.62
2017-09-19T01:27:03.818Z,966.61
2017-09-19T01:28:13.482Z,966.63
2017-09-19T01:29:23.455Z,966.58
2017-09-19T01:30:32.151Z,966.61
2017-09-19T01:31:41.487Z,966.59
2017-09-19T01:32:50.510Z,966.63
2017-09-19T01:34:00.172Z,966.61
2017-09-19T01:35:09.509Z,966.6
2017-09-19T01:36:18.206Z,966.55
2017-09-19T01:37:27.549Z,966.59
2017-09-19T01:38:36.892Z,966.6
2017-09-19T01:39:46.564Z,966.51
2017-09-19T01:40:55.581Z,966.56
2017-09-19T01:42:04.596Z,966.55
2017-09-19T01:43:13.291Z,966.56
2017-09-19T01:44:22.305Z,966.54
2017-09-19T01:45:31.957Z,966.54
2017-09-19T01:46:41.296Z,966.56
2017-09-19T01:47:50.632Z,966.51
2017-09-19T01:48:59.325Z,966.54
2017-09-19T01:50:08.658Z,966.54
2017-09-19T01:51:17.358Z,966.56
2017-09-19T01:52:26.054Z,966.56
2017-09-19T01:53:35.070Z,966.53
2017-09-19T01:54:44.088Z,966.54
2017-09-19T01:55:53.748Z,966.52
2017-09-19T01:57:02.773Z,966.52
2017-09-19T01:58:12.113Z,966.51
2017-09-19T01:59:22.091Z,966.53
2017-09-19T02:00:30.789Z,966.53
2017-09-19T02:01:39.487Z,966.56
2017-09-19T02:02:49.139Z,966.54
2017-09-19T02:03:57.836Z,966.53
2017-09-19T02:05:06.534Z,966.53
2017-09-19T02:06:15.865Z,966.52
2017-09-19T02:07:24.880Z,966.52
2017-09-19T02:08:34.532Z,966.52
2017-09-19T02:09:44.193Z,966.54
2017-09-19T02:10:53.529Z,966.54
2017-09-19T02:12:03.184Z,966.54
2017-09-19T02:13:11.881Z,966.53
2017-09-19T02:14:20.897Z,966.53
2017-09-19T02:15:29.915Z,966.51
2017-09-19T02:16:38.611Z,966.55
2017-09-19T02:17:47.631Z,966.57
2017-09-19T02:18:56.648Z,966.56
2017-09-19T02:20:06.304Z,966.55
2017-09-19T02:21:15.641Z,966.57
2017-09-19T02:22:25.312Z,966.58
2017-09-19T02:23:34.011Z,966.61
2017-09-19T02:24:42.708Z,966.59
2017-09-19T02:25:52.042Z,966.58
2017-09-19T02:27:01.377Z,966.57
2017-09-19T02:28:10.396Z,966.53
2017-09-19T02:29:19.729Z,966.54
2017-09-19T02:30:28.424Z,966.56
2017-09-19T02:31:38.085Z,966.55
2017-09-19T02:32:47.427Z,966.5
2017-09-19T02:33:56.476Z,966.55
2017-09-19T02:35:05.816Z,966.52
2017-09-19T02:36:15.165Z,966.5
2017-09-19T02:37:24.183Z,966.47
2017-09-19T02:38:33.196Z,966.48
2017-09-19T02:39:42.218Z,966.51
2017-09-19T02:40:51.915Z,966.51
2017-09-19T02:42:01.253Z,966.49
2017-09-19T02:43:09.952Z,966.48
2017-09-19T02:44:19.291Z,966.48
2017-09-19T02:45:28.627Z,966.46
2017-09-19T02:46:37.968Z,966.48
2017-09-19T02:47:47.303Z,966.47
2017-09-19T02:48:56.961Z,966.46
2017-09-19T02:50:05.660Z,966.5
2017-09-19T02:51:15.314Z,966.49
2017-09-19T02:52:24.334Z,966.46
2017-09-19T02:53:33.032Z,966.51
2017-09-19T02:54:42.376Z,966.51
2017-09-19T02:55:51.717Z,966.5
2017-09-19T02:57:01.060Z,966.5
2017-09-19T02:58:10.717Z,966.48
2017-09-19T02:59:20.060Z,966.5
2017-09-19T03:00:29.081Z,966.51
2017-09-19T03:01:38.103Z,966.55
2017-09-19T03:02:47.763Z,966.52
2017-09-19T03:03:56.778Z,966.51
2017-09-19T03:05:06.435Z,966.52
2017-09-19T03:06:15.455Z,966.54
2017-09-19T03:07:24.794Z,966.52
2017-09-19T03:08:33.814Z,966.52
2017-09-19T03:09:43.146Z,966.54
2017-09-19T03:10:52.164Z,966.51
2017-09-19T03:12:01.178Z,966.55
2017-09-19T03:13:10.521Z,966.51
2017-09-19T03:14:19.551Z,966.5
2017-09-19T03:15:28.885Z,966.47
2017-09-19T03:16:37.580Z,966.49
2017-09-19T03:17:46.598Z,966.56
2017-09-19T03:18:56.258Z,966.54
2017-09-19T03:20:04.962Z,966.53
2017-09-19T03:21:13.977Z,966.5
2017-09-19T03:22:23.637Z,966.48
2017-09-19T03:23:32.653Z,966.5
2017-09-19T03:24:42.304Z,966.48
2017-09-19T03:25:51.324Z,966.49
2017-09-19T03:27:00.662Z,966.5
2017-09-19T03:28:10.003Z,966.48
2017-09-19T03:29:19.337Z,966.48
2017-09-19T03:30:28.035Z,966.51
2017-09-19T03:31:37.055Z,966.51
2017-09-19T03:32:46.069Z,966.5
2017-09-19T03:33:55.088Z,966.48
2017-09-19T03:35:04.742Z,966.49
2017-09-19T03:36:13.755Z,966.5
2017-09-19T03:37:22.451Z,966.49
2017-09-19T03:38:31.787Z,966.5
2017-09-19T03:39:41.121Z,966.53
2017-09-19T03:40:49.819Z,966.52
2017-09-19T03:41:59.156Z,966.55
2017-09-19T03:43:08.178Z,966.56
2017-09-19T03:44:17.837Z,966.53
2017-09-19T03:45:27.811Z,966.53
2017-09-19T03:46:36.511Z,966.54
2017-09-19T03:47:45.850Z,966.53
2017-09-19T03:48:54.866Z,966.6
2017-09-19T03:50:03.881Z,966.6
2017-09-19T03:51:12.897Z,966.54
2017-09-19T03:52:21.594Z,966.59
2017-09-19T03:53:30.931Z,966.61
2017-09-19T03:54:39.947Z,966.61
2017-09-19T03:55:49.293Z,966.59
2017-09-19T03:56:58.311Z,966.62
2017-09-19T03:58:07.968Z,966.66
2017-09-19T03:59:16.984Z,966.58
2017-09-19T04:00:26.643Z,966.61
2017-09-19T04:01:35.979Z,966.62
2017-09-19T04:02:44.675Z,966.66
2017-09-19T04:03:54.011Z,966.6
2017-09-19T04:05:02.709Z,966.63
2017-09-19T04:06:12.374Z,966.58
2017-09-19T04:07:22.029Z,966.59
2017-09-19T04:08:31.055Z,966.6
2017-09-19T04:09:40.391Z,966.58
2017-09-19T04:10:50.060Z,966.59
2017-09-19T04:11:59.077Z,966.59
2017-09-19T04:13:08.413Z,966.63
2017-09-19T04:14:17.108Z,966.6
2017-09-19T04:15:26.456Z,966.61
2017-09-19T04:16:35.476Z,966.62
2017-09-19T04:17:44.174Z,966.61
2017-09-19T04:18:53.187Z,966.59
2017-09-19T04:20:02.201Z,966.6
2017-09-19T04:21:11.214Z,966.61
2017-09-19T04:22:20.871Z,966.59
2017-09-19T04:23:29.887Z,966.61
2017-09-19T04:24:39.543Z,966.63
2017-09-19T04:25:48.880Z,966.64
2017-09-19T04:26:58.531Z,966.63
2017-09-19T04:28:07.866Z,966.62
2017-09-19T04:29:16.889Z,966.64
2017-09-19T04:30:26.548Z,966.59
2017-09-19T04:31:35.566Z,966.58
2017-09-19T04:32:44.898Z,966.67
2017-09-19T04:33:54.880Z,966.66
2017-09-19T04:35:04.218Z,966.66
2017-09-19T04:36:13.234Z,966.69
2017-09-19T04:37:22.247Z,966.66
2017-09-19T04:38:31.588Z,966.72
2017-09-19T04:39:40.604Z,966.73
2017-09-19T04:40:49.936Z,966.69
2017-09-19T04:41:59.271Z,966.72
2017-09-19T04:43:08.934Z,966.73
2017-09-19T04:44:18.274Z,966.71
2017-09-19T04:45:27.290Z,966.75
2017-09-19T04:46:36.305Z,966.74
2017-09-19T04:47:45.003Z,966.79
2017-09-19T04:48:54.977Z,966.77
2017-09-19T04:50:03.993Z,966.82
2017-09-19T04:51:12.690Z,966.82
2017-09-19T04:52:22.033Z,966.83
2017-09-19T04:53:31.048Z,966.84
2017-09-19T04:54:40.061Z,966.84
2017-09-19T04:55:49.085Z,966.84
2017-09-19T04:56:58.424Z,966.84
2017-09-19T04:58:07.437Z,966.86
2017-09-19T04:59:16.129Z,966.85
2017-09-19T05:00:25.465Z,966.84
2017-09-19T05:01:34.804Z,966.87
2017-09-19T05:02:43.820Z,966.88
2017-09-19T05:03:52.516Z,966.89
2017-09-19T05:05:01.530Z,966.9
2017-09-19T05:06:10.551Z,966.89
2017-09-19T05:07:19.568Z,966.92
2017-09-19T05:08:28.585Z,966.93
2017-09-19T05:09:37.281Z,966.95
2017-09-19T05:10:46.618Z,966.95
2017-09-19T05:11:55.634Z,966.97
2017-09-19T05:13:04.334Z,966.98
2017-09-19T05:14:13.349Z,967
2017-09-19T05:15:23.011Z,967
2017-09-19T05:16:32.677Z,967.05
2017-09-19T05:17:41.373Z,967.04
2017-09-19T05:18:50.709Z,967.04
2017-09-19T05:19:59.410Z,967.02
2017-09-19T05:21:09.387Z,967.06
2017-09-19T05:22:18.724Z,967.08
2017-09-19T05:23:28.060Z,967.07
2017-09-19T05:24:37.395Z,967.11
2017-09-19T05:25:46.094Z,967.09
2017-09-19T05:26:55.149Z,967.12
2017-09-19T05:28:04.171Z,967.13
2017-09-19T05:29:13.827Z,967.11
2017-09-19T05:30:22.522Z,967.13
2017-09-19T05:31:31.221Z,967.1
2017-09-19T05:32:40.876Z,967.09
2017-09-19T05:33:49.889Z,967.11
2017-09-19T05:34:59.225Z,967.11
2017-09-19T05:36:07.926Z,967.14
2017-09-19T05:37:17.263Z,967.13
2017-09-19T05:38:26.920Z,967.08
2017-09-19T05:39:35.949Z,967.08
2017-09-19T05:40:44.964Z,967.11
2017-09-19T05:41:54.621Z,967.09
2017-09-19T05:43:03.637Z,967.12
2017-09-19T05:44:12.657Z,967.12
2017-09-19T05:45:21.995Z,967.13
2017-09-19T05:46:31.336Z,967.11
2017-09-19T05:47:41.010Z,967.16
2017-09-19T05:48:50.345Z,967.16
2017-09-19T05:49:59.363Z,967.14
2017-09-19T05:51:08.379Z,967.2
2017-09-19T05:52:17.079Z,967.18
2017-09-19T05:53:26.413Z,967.17
2017-09-19T05:54:35.105Z,967.2
2017-09-19T05:55:44.764Z,967.19
2017-09-19T05:56:54.100Z,967.18
2017-09-19T05:58:03.114Z,967.2
2017-09-19T05:59:12.132Z,967.24
2017-09-19T06:00:21.149Z,967.25
2017-09-19T06:01:30.165Z,967.21
2017-09-19T06:02:39.499Z,967.22
2017-09-19T06:03:48.202Z,967.24
2017-09-19T06:04:57.853Z,967.23
2017-09-19T06:06:07.187Z,967.24
2017-09-19T06:07:16.201Z,967.23
2017-09-19T06:08:25.533Z,967.24
2017-09-19T06:09:35.189Z,967.29
2017-09-19T06:10:44.843Z,967.26
2017-09-19T06:11:53.857Z,967.25
2017-09-19T06:13:02.872Z,967.26
2017-09-19T06:14:12.205Z,967.28
2017-09-19T06:15:21.218Z,967.26
2017-09-19T06:16:30.234Z,967.28
2017-09-19T06:17:39.570Z,967.33
2017-09-19T06:18:49.223Z,967.32
2017-09-19T06:19:58.877Z,967.36
2017-09-19T06:21:07.892Z,967.34
2017-09-19T06:22:16.910Z,967.4
2017-09-19T06:23:25.608Z,967.39
2017-09-19T06:24:35.262Z,967.35
2017-09-19T06:25:44.599Z,967.4
2017-09-19T06:26:54.261Z,967.4
2017-09-19T06:28:03.600Z,967.38
2017-09-19T06:29:12.617Z,967.42
2017-09-19T06:30:21.632Z,967.41
2017-09-19T06:31:30.997Z,967.43
2017-09-19T06:32:39.700Z,967.47
2017-09-19T06:33:48.395Z,967.44
2017-09-19T06:34:57.088Z,967.44
2017-09-19T06:36:05.781Z,967.45
2017-09-19T06:37:14.797Z,967.45
2017-09-19T06:38:23.810Z,967.46
2017-09-19T06:39:32.828Z,967.49
2017-09-19T06:40:41.849Z,967.48
2017-09-19T06:41:51.202Z,967.47
2017-09-19T06:43:00.218Z,967.46
2017-09-19T06:44:09.555Z,967.49
2017-09-19T06:45:18.253Z,967.53
2017-09-19T06:46:27.587Z,967.51
2017-09-19T06:47:37.241Z,967.52
2017-09-19T06:48:46.582Z,967.5
2017-09-19T06:49:55.277Z,967.49
2017-09-19T06:51:04.289Z,967.52
2017-09-19T06:52:13.625Z,967.55
2017-09-19T06:53:22.638Z,967.53
2017-09-19T06:54:31.652Z,967.57
2017-09-19T06:55:40.669Z,967.55
2017-09-19T06:56:50.323Z,967.56
2017-09-19T06:57:59.018Z,967.57
2017-09-19T06:59:07.714Z,967.52
2017-09-19T07:00:17.057Z,967.59
2017-09-19T07:01:26.075Z,967.6
2017-09-19T07:02:35.416Z,967.65
2017-09-19T07:03:44.111Z,967.67
2017-09-19T07:04:53.122Z,967.68
2017-09-19T07:06:02.136Z,967.67
2017-09-19T07:07:11.472Z,967.7
2017-09-19T07:08:20.168Z,967.73
2017-09-19T07:09:29.179Z,967.72
2017-09-19T07:10:38.196Z,967.76
2017-09-19T07:11:47.217Z,967.78
2017-09-19T07:12:56.553Z,967.78
2017-09-19T07:14:05.567Z,967.77
2017-09-19T07:15:15.226Z,967.83
2017-09-19T07:16:23.922Z,967.81
2017-09-19T07:17:32.615Z,967.79
2017-09-19T07:18:41.948Z,967.8
2017-09-19T07:19:50.961Z,967.83
2017-09-19T07:20:59.656Z,967.8
2017-09-19T07:22:08.671Z,967.84
2017-09-19T07:23:18.013Z,967.84
2017-09-19T07:24:27.030Z,967.83
2017-09-19T07:25:36.368Z,967.88
2017-09-19T07:26:45.387Z,967.87
2017-09-19T07:27:55.043Z,967.86
2017-09-19T07:29:04.062Z,967.84
2017-09-19T07:30:13.724Z,967.88
2017-09-19T07:31:23.059Z,967.91
2017-09-19T07:32:32.081Z,967.91
2017-09-19T07:33:40.781Z,967.92
2017-09-19T07:34:49.799Z,967.98
2017-09-19T07:35:59.138Z,967.92
2017-09-19T07:37:08.158Z,967.94
2017-09-19T07:38:17.181Z,967.98
2017-09-19T07:39:26.519Z,967.98
2017-09-19T07:40:35.853Z,967.97
2017-09-19T07:41:44.869Z,968.03
2017-09-19T07:42:54.213Z,968.01
2017-09-19T07:44:03.553Z,968.02
2017-09-19T07:45:12.251Z,968.01
2017-09-19T07:46:21.269Z,968.07
2017-09-19T07:47:30.608Z,968.07
2017-09-19T07:48:40.267Z,968.09
2017-09-19T07:49:49.285Z,968.1
2017-09-19T07:50:57.986Z,968.08
2017-09-19T07:52:07.005Z,968.1
2017-09-19T07:53:16.023Z,968.09
2017-09-19T07:54:25.047Z,968.08
2017-09-19T07:55:34.382Z,968.07
2017-09-19T07:56:43.087Z,968.09
2017-09-19T07:57:52.429Z,968.15
2017-09-19T07:59:01.442Z,968.13
2017-09-19T08:00:11.130Z,968.11
2017-09-19T08:01:19.828Z,968.11
2017-09-19T08:02:29.163Z,968.11
2017-09-19T08:03:38.827Z,968.12
2017-09-19T08:04:47.841Z,968.12
2017-09-19T08:05:56.535Z,968.17
2017-09-19T08:07:05.551Z,968.18
2017-09-19T08:08:15.532Z,968.2
2017-09-19T08:09:24.547Z,968.22
2017-09-19T08:10:33.243Z,968.24
2017-09-19T08:11:42.259Z,968.25
2017-09-19T08:12:51.595Z,968.21
2017-09-19T08:14:00.612Z,968.26
2017-09-19T08:15:10.586Z,968.28
2017-09-19T08:16:19.920Z,968.24
2017-09-19T08:17:29.265Z,968.24
2017-09-19T08:18:39.655Z,968.21
2017-09-19T08:19:49.713Z,968.23
2017-09-19T08:20:58.409Z,968.23
2017-09-19T08:22:07.742Z,968.26
2017-09-19T08:23:16.435Z,968.27
2017-09-19T08:24:25.454Z,968.27
2017-09-19T08:25:34.784Z,968.27
2017-09-19T08:26:44.770Z,968.29
2017-09-19T08:27:53.466Z,968.29
2017-09-19T08:29:03.120Z,968.33
2017-09-19T08:30:11.816Z,968.34
2017-09-19T08:31:21.148Z,968.37
2017-09-19T08:32:30.484Z,968.38
2017-09-19T08:33:39.179Z,968.36
2017-09-19T08:34:48.519Z,968.37
2017-09-19T08:35:57.215Z,968.34
2017-09-19T08:37:06.236Z,968.39
2017-09-19T08:38:15.574Z,968.42
2017-09-19T08:39:24.587Z,968.38
2017-09-19T08:40:33.602Z,968.41
2017-09-19T08:41:42.939Z,968.4
2017-09-19T08:42:52.589Z,968.41
2017-09-19T08:44:01.930Z,968.36
2017-09-19T08:45:10.945Z,968.38
2017-09-19T08:46:19.961Z,968.4
2017-09-19T08:47:29.297Z,968.43
2017-09-19T08:48:38.951Z,968.41
2017-09-19T08:49:47.646Z,968.43
2017-09-19T08:50:56.342Z,968.44
2017-09-19T08:52:05.037Z,968.46
2017-09-19T08:53:13.732Z,968.39
2017-09-19T08:54:22.426Z,968.44
2017-09-19T08:55:31.440Z,968.48
2017-09-19T08:56:40.456Z,968.48
2017-09-19T08:57:49.789Z,968.44
2017-09-19T08:58:58.803Z,968.44
2017-09-19T09:00:07.495Z,968.51
2017-09-19T09:01:17.477Z,968.5
2017-09-19T09:02:26.496Z,968.53
2017-09-19T09:03:35.836Z,968.51
2017-09-19T09:04:44.530Z,968.52
2017-09-19T09:05:53.867Z,968.54
2017-09-19T09:07:02.562Z,968.52
2017-09-19T09:08:11.900Z,968.56
2017-09-19T09:09:21.237Z,968.58
2017-09-19T09:10:30.908Z,968.58
2017-09-19T09:11:40.566Z,968.57
2017-09-19T09:12:49.582Z,968.56
2017-09-19T09:13:58.917Z,968.55
2017-09-19T09:15:07.932Z,968.56
2017-09-19T09:16:16.946Z,968.6
2017-09-19T09:17:26.281Z,968.6
2017-09-19T09:18:34.976Z,968.61
2017-09-19T09:19:43.991Z,968.62
2017-09-19T09:20:53.966Z,968.62
2017-09-19T09:22:02.661Z,968.61
2017-09-19T09:23:12.001Z,968.63
2017-09-19T09:24:21.014Z,968.61
2017-09-19T09:25:30.347Z,968.63
2017-09-19T09:26:39.361Z,968.6
2017-09-19T09:27:48.699Z,968.64
2017-09-19T09:28:57.724Z,968.64
2017-09-19T09:30:06.419Z,968.65
2017-09-19T09:31:15.432Z,968.65
2017-09-19T09:32:24.769Z,968.61
2017-09-19T09:33:33.784Z,968.63
2017-09-19T09:34:42.800Z,968.64
2017-09-19T09:35:52.455Z,968.62
2017-09-19T09:37:02.432Z,968.67
2017-09-19T09:38:11.447Z,968.65
2017-09-19T09:39:20.141Z,968.68
2017-09-19T09:40:29.794Z,968.7
2017-09-19T09:41:38.809Z,968.69
2017-09-19T09:42:47.823Z,968.67
2017-09-19T09:43:57.159Z,968.68
2017-09-19T09:45:06.500Z,968.66
2017-09-19T09:46:15.837Z,968.63
2017-09-19T09:47:24.851Z,968.66
2017-09-19T09:48:35.149Z,968.67
2017-09-19T09:49:44.165Z,968.72
2017-09-19T09:50:53.180Z,968.71
2017-09-19T09:52:02.838Z,968.73
2017-09-19T09:53:11.857Z,968.66
2017-09-19T09:54:20.872Z,968.73
2017-09-19T09:55:29.566Z,968.73
2017-09-19T09:56:38.591Z,968.74
2017-09-19T09:57:47.287Z,968.71
2017-09-19T09:58:55.983Z,968.73
2017-09-19T10:00:05.314Z,968.73
2017-09-19T10:01:14.329Z,968.79
2017-09-19T10:02:23.985Z,968.73
2017-09-19T10:03:32.999Z,968.74
2017-09-19T10:04:42.339Z,968.74
2017-09-19T10:05:51.352Z,968.77
2017-09-19T10:07:01.339Z,968.74
2017-09-19T10:08:10.676Z,968.76
2017-09-19T10:09:19.691Z,968.74
2017-09-19T10:10:29.034Z,968.73
2017-09-19T10:11:37.725Z,968.7
2017-09-19T10:12:47.744Z,968.72
2017-09-19T10:13:56.409Z,968.77
2017-09-19T10:15:06.067Z,968.72
2017-09-19T10:16:15.403Z,968.73
2017-09-19T10:17:24.101Z,968.73
2017-09-19T10:18:33.118Z,968.74
2017-09-19T10:19:42.464Z,968.75
2017-09-19T10:20:51.823Z,968.74
2017-09-19T10:22:00.811Z,968.75
2017-09-19T10:23:09.837Z,968.76
2017-09-19T10:24:18.852Z,968.82
2017-09-19T10:25:27.869Z,968.81
2017-09-19T10:26:37.205Z,968.84
2017-09-19T10:27:45.901Z,968.81
2017-09-19T10:28:54.917Z,968.85
2017-09-19T10:30:04.252Z,968.83
2017-09-19T10:31:13.270Z,968.85
2017-09-19T10:32:22.926Z,968.86
2017-09-19T10:33:32.587Z,968.84
2017-09-19T10:34:41.605Z,968.85
2017-09-19T10:35:50.625Z,968.87
2017-09-19T10:36:59.322Z,968.89
2017-09-19T10:38:08.351Z,968.87
2017-09-19T10:39:17.363Z,968.88
2017-09-19T10:40:26.379Z,968.89
2017-09-19T10:41:35.400Z,968.89
2017-09-19T10:42:44.737Z,968.91
2017-09-19T10:43:53.431Z,968.93
2017-09-19T10:45:02.446Z,968.93
2017-09-19T10:46:12.121Z,968.92
2017-09-19T10:47:21.457Z,968.92
2017-09-19T10:48:30.793Z,968.97
2017-09-19T10:49:40.130Z,968.97
2017-09-19T10:50:48.826Z,968.99
2017-09-19T10:51:57.518Z,968.95
2017-09-19T10:53:06.856Z,969
2017-09-19T10:54:16.194Z,969.02
2017-09-19T10:55:25.526Z,969
2017-09-19T10:56:34.542Z,969.02
2017-09-19T10:57:43.884Z,969
2017-09-19T10:58:53.229Z,969.04
2017-09-19T11:00:01.938Z,969.04
2017-09-19T11:01:10.633Z,969.07
2017-09-19T11:02:19.652Z,969.05
2017-09-19T11:03:28.669Z,969.05
2017-09-19T11:04:37.366Z,969.05
2017-09-19T11:05:47.026Z,969.05
2017-09-19T11:06:56.042Z,969.03
2017-09-19T11:08:05.061Z,969.03
2017-09-19T11:09:13.756Z,969.04
2017-09-19T11:10:23.090Z,969.03
2017-09-19T11:11:32.432Z,969.04
2017-09-19T11:12:41.446Z,969.02
2017-09-19T11:13:50.463Z,969.06
2017-09-19T11:14:59.484Z,969.03
2017-09-19T11:16:08.498Z,969.08
2017-09-19T11:17:17.194Z,969.09
2017-09-19T11:18:26.209Z,969.12
2017-09-19T11:19:35.224Z,969.09
2017-09-19T11:20:44.560Z,969.12
2017-09-19T11:21:53.907Z,969.07
2017-09-19T11:23:02.605Z,969.06
2017-09-19T11:24:11.938Z,969.07
2017-09-19T11:25:20.953Z,969.09
2017-09-19T11:26:29.973Z,969.05
2017-09-19T11:27:39.312Z,969.06
2017-09-19T11:28:48.965Z,969.07
2017-09-19T11:29:57.661Z,969.1
2017-09-19T11:31:06.995Z,969.05
2017-09-19T11:32:16.011Z,969.07
2017-09-19T11:33:25.667Z,969.09
2017-09-19T11:34:34.361Z,969.06
2017-09-19T11:35:43.704Z,969.06
2017-09-19T11:36:53.357Z,969.09
2017-09-19T11:38:02.052Z,969.02
2017-09-19T11:39:10.751Z,969.08
2017-09-19T11:40:20.090Z,969.05
2017-09-19T11:41:29.109Z,969.08
2017-09-19T11:42:38.440Z,969.11
2017-09-19T11:43:47.460Z,969.17
2017-09-19T11:44:56.800Z,969.15
2017-09-19T11:46:05.817Z,969.11
2017-09-19T11:47:14.834Z,969.13
2017-09-19T11:48:24.172Z,969.12
2017-09-19T11:49:32.874Z,969.15
2017-09-19T11:50:41.893Z,969.12
2017-09-19T11:51:51.869Z,969.15
2017-09-19T11:53:00.888Z,969.15
2017-09-19T11:54:10.223Z,969.15
2017-09-19T11:55:19.557Z,969.14
2017-09-19T11:56:28.572Z,969.17
2017-09-19T11:57:37.588Z,969.13
2017-09-19T11:58:47.241Z,969.13
2017-09-19T11:59:56.259Z,969.15
2017-09-19T12:01:05.594Z,969.13
2017-09-19T12:02:14.611Z,969.13
2017-09-19T12:03:23.625Z,969.17
2017-09-19T12:04:32.958Z,969.18
2017-09-19T12:05:42.293Z,969.18
2017-09-19T12:06:51.308Z,969.22
2017-09-19T12:08:00.321Z,969.22
2017-09-19T12:09:09.350Z,969.25
2017-09-19T12:10:18.365Z,969.25
2017-09-19T12:11:27.412Z,969.26
2017-09-19T12:12:36.757Z,969.31
2017-09-19T12:13:46.094Z,969.32
2017-09-19T12:14:54.790Z,969.34
2017-09-19T12:16:03.488Z,969.3
2017-09-19T12:17:12.504Z,969.28
2017-09-19T12:18:21.518Z,969.35
2017-09-19T12:19:30.214Z,969.34
2017-09-19T12:20:39.229Z,969.36
2017-09-19T12:21:48.251Z,969.33
2017-09-19T12:22:57.585Z,969.37
2017-09-19T12:24:06.925Z,969.36
2017-09-19T12:25:15.939Z,969.33
2017-09-19T12:26:24.960Z,969.33
2017-09-19T12:27:34.297Z,969.33
2017-09-19T12:28:43.316Z,969.35
2017-09-19T12:29:52.016Z,969.33
2017-09-19T12:31:00.712Z,969.33
2017-09-19T12:32:09.729Z,969.35
2017-09-19T12:33:18.742Z,969.34
2017-09-19T12:34:28.078Z,969.36
2017-09-19T12:35:37.092Z,969.36
2017-09-19T12:36:46.441Z,969.4
2017-09-19T12:37:55.136Z,969.35
2017-09-19T12:39:04.153Z,969.39
2017-09-19T12:40:13.489Z,969.38
2017-09-19T12:41:22.505Z,969.34
2017-09-19T12:42:32.164Z,969.4
2017-09-19T12:43:41.180Z,969.37
2017-09-19T12:44:49.876Z,969.43
2017-09-19T12:45:58.889Z,969.41
2017-09-19T12:47:07.587Z,969.42
2017-09-19T12:48:16.607Z,969.38
2017-09-19T12:49:25.304Z,969.38
2017-09-19T12:50:34.637Z,969.41
2017-09-19T12:51:43.654Z,969.41
2017-09-19T12:52:52.349Z,969.38
2017-09-19T12:54:01.366Z,969.31
2017-09-19T12:55:10.704Z,969.35
2017-09-19T12:56:19.400Z,969.32
2017-09-19T12:57:28.417Z,969.35
2017-09-19T12:58:37.111Z,969.37
2017-09-19T12:59:46.130Z,969.36
2017-09-19T13:00:54.825Z,969.4
2017-09-19T13:02:04.480Z,969.36
2017-09-19T13:03:13.175Z,969.41
2017-09-19T13:04:22.188Z,969.43
2017-09-19T13:05:31.237Z,969.47
2017-09-19T13:06:40.574Z,969.44
2017-09-19T13:07:49.915Z,969.43
2017-09-19T13:08:59.250Z,969.41
2017-09-19T13:10:08.588Z,969.4
2017-09-19T13:11:17.600Z,969.41
2017-09-19T13:12:26.938Z,969.43
2017-09-19T13:13:36.279Z,969.41
2017-09-19T13:14:45.307Z,969.42
2017-09-19T13:15:54.963Z,969.42
2017-09-19T13:17:03.984Z,969.4
2017-09-19T13:18:13.002Z,969.42
2017-09-19T13:19:21.699Z,969.38
2017-09-19T13:20:31.034Z,969.4
2017-09-19T13:21:40.051Z,969.33
2017-09-19T13:22:49.386Z,969.34
2017-09-19T13:23:58.722Z,969.37
2017-09-19T13:25:08.084Z,969.37
2017-09-19T13:26:17.747Z,969.37
2017-09-19T13:27:26.762Z,969.34
2017-09-19T13:28:35.778Z,969.35
2017-09-19T13:29:45.438Z,969.39
2017-09-19T13:30:54.452Z,969.35
2017-09-19T13:32:03.788Z,969.4
2017-09-19T13:33:12.487Z,969.37
2017-09-19T13:34:21.182Z,969.38
2017-09-19T13:35:30.550Z,969.37
2017-09-19T13:36:39.871Z,969.39
2017-09-19T13:37:49.527Z,969.39
2017-09-19T13:38:58.542Z,969.34
2017-09-19T13:40:07.879Z,969.36
2017-09-19T13:41:17.225Z,969.39
2017-09-19T13:42:26.883Z,969.36
2017-09-19T13:43:35.578Z,969.36
2017-09-19T13:44:44.913Z,969.37
2017-09-19T13:45:53.609Z,969.39
2017-09-19T13:47:02.306Z,969.38
2017-09-19T13:48:11.648Z,969.37
2017-09-19T13:49:20.669Z,969.39
2017-09-19T13:50:29.687Z,969.38
2017-09-19T13:51:39.347Z,969.38
2017-09-19T13:52:48.046Z,969.39
2017-09-19T13:53:56.742Z,969.39
2017-09-19T13:55:05.765Z,969.4
2017-09-19T13:56:15.107Z,969.44
2017-09-19T13:57:24.760Z,969.45
2017-09-19T13:58:34.427Z,969.45
2017-09-19T13:59:43.453Z,969.45
2017-09-19T14:00:52.161Z,969.44
2017-09-19T14:02:01.179Z,969.44
2017-09-19T14:03:10.520Z,969.45
2017-09-19T14:04:20.169Z,969.47
2017-09-19T14:05:29.823Z,969.47
2017-09-19T14:06:39.160Z,969.48
2017-09-19T14:07:48.175Z,969.5
2017-09-19T14:08:56.875Z,969.48
2017-09-19T14:10:05.899Z,969.52
2017-09-19T14:11:14.596Z,969.54
2017-09-19T14:12:23.934Z,969.52
2017-09-19T14:13:32.951Z,969.5
2017-09-19T14:14:41.648Z,969.5
2017-09-19T14:15:50.664Z,969.49
2017-09-19T14:16:59.998Z,969.52
2017-09-19T14:18:09.024Z,969.46
2017-09-19T14:19:18.043Z,969.45
2017-09-19T14:20:27.060Z,969.46
2017-09-19T14:21:36.713Z,969.45
2017-09-19T14:22:45.732Z,969.44
2017-09-19T14:23:54.749Z,969.48
2017-09-19T14:25:03.448Z,969.45
2017-09-19T14:26:12.788Z,969.45